Time;durP1;ratioP1;P1;durP2;ratioP2;P2;SDS_P1;SDS_P2;PMS_P1;PMS_P2;Temp;Humidity;BMP_temperature;BMP_pressure;BME280_temperature;BME280_humidity;BME280_pressure;Samples;Min_cycle;Max_cycle;Signal;HPM_P1;HPM_P2
2021/11/26 05:06:22;;;;;;;;;66.00;54.33;;;;;;;;6457208;39;9031;-56
2021/11/26 05:12:28;;;;;;;;;70.67;57.00;;;;;;;;6490910;46;8933;-56
2021/11/26 05:18:31;;;;;;;;;96.67;73.00;;;;;;;;6492215;31;9608;-54
2021/11/26 05:24:33;;;;;;;;;91.33;72.67;;;;;;;;6492409;39;9580;-57
2021/11/26 08:57:28;;;;;;;;;26.75;25.00;;;;;;;;6310649;47;10000916;-58
2021/11/26 09:03:33;;;;;;;;;53.25;45.50;;;;;;;;6490757;46;8960;-57
2021/11/26 09:09:35;;;;;;;;;54.50;46.75;;;;;;;;6492793;39;8929;-58
2021/11/26 09:15:40;;;;;;;;;57.75;51.00;;;;;;;;6311526;31;10001348;-58
2021/11/26 09:21:42;;;;;;;;;57.75;49.25;;;;;;;;6491587;31;8883;-58
2021/11/26 09:27:45;;;;;;;;;60.75;50.25;;;;;;;;6492627;46;8996;-59
2021/11/26 09:33:52;;;;;;;;;58.50;48.00;;;;;;;;6491190;46;8884;-57
2021/11/26 09:39:54;;;;;;;;;61.75;51.00;;;;;;;;6492050;46;8879;-58
2021/11/26 09:45:57;;;;;;;;;69.00;55.00;;;;;;;;6491211;39;8931;-58
2021/11/26 09:52:00;;;;;;;;;62.00;50.00;;;;;;;;6489158;31;9014;-58
2021/11/26 09:58:03;;;;;;;;;54.25;46.00;;;;;;;;6490344;31;8897;-59
2021/11/26 10:04:15;;;;;;;;;40.75;40.50;;;;;;;;6490590;31;8848;-56
2021/11/26 10:10:27;;;;;;;;;42.50;37.75;;;;;;;;6491859;39;8861;-57
2021/11/26 10:16:30;;;;;;;;;49.75;42.50;;;;;;;;6491147;31;8992;-60
2021/11/26 10:22:44;;;;;;;;;53.75;43.75;;;;;;;;6489712;46;9500;-57
2021/11/26 10:28:51;;;;;;;;;53.00;44.25;;;;;;;;6490231;46;8923;-56
2021/11/26 10:35:03;;;;;;;;;22.00;19.00;;;;;;;;4222866;36;10010981;-56
2021/11/26 10:41:12;;;;;;;;;44.00;36.25;;;;;;;;3605485;46;10001020;-54
2021/11/26 10:47:22;;;;;;;;;35.25;33.00;;;;;;;;6489089;39;8967;-57
2021/11/26 10:59:40;;;;;;;;;33.00;29.00;;;;;;;;6486155;39;8927;-55
2021/11/26 11:05:42;;;;;;;;;28.25;28.25;;;;;;;;6489197;46;8912;-58
2021/11/26 11:11:54;;;;;;;;;39.25;32.00;;;;;;;;6490249;31;8942;-58
2021/11/26 11:17:56;;;;;;;;;33.75;31.50;;;;;;;;6490271;39;9554;-56
2021/11/26 11:23:59;;;;;;;;;28.75;26.25;;;;;;;;6487849;31;9040;-59
2021/11/26 11:30:05;;;;;;;;;32.00;29.00;;;;;;;;6487893;46;8871;-56
2021/11/26 11:36:09;;;;;;;;;33.50;31.50;;;;;;;;6489112;39;8896;-60
2021/11/26 11:42:23;;;;;;;;;42.50;37.00;;;;;;;;6489312;39;8875;-57
2021/11/26 11:48:50;;;;;;;;;40.25;33.75;;;;;;;;6487903;46;8916;-59
2021/11/26 11:54:52;;;;;;;;;38.50;32.50;;;;;;;;6490391;39;8915;-58
2021/11/26 12:00:54;;;;;;;;;35.75;33.75;;;;;;;;6489457;39;9035;-60
2021/11/26 12:06:57;;;;;;;;;31.25;29.25;;;;;;;;6488574;46;9023;-56
2021/11/26 12:12:59;;;;;;;;;29.00;29.00;;;;;;;;6489222;46;9019;-59
2021/11/26 12:19:01;;;;;;;;;28.25;25.50;;;;;;;;6487873;46;8936;-57
2021/11/26 12:25:07;;;;;;;;;33.75;30.75;;;;;;;;6489163;46;8915;-55
2021/11/26 12:31:16;;;;;;;;;36.00;31.25;;;;;;;;6488588;46;8988;-54
2021/11/26 12:37:30;;;;;;;;;31.50;30.50;;;;;;;;6487944;46;8919;-55
2021/11/26 12:43:46;;;;;;;;;38.50;37.50;;;;;;;;6488975;39;8868;-55
2021/11/26 12:56:00;;;;;;;;;44.00;37.50;;;;;;;;6489027;46;8908;-57
2021/11/26 13:02:05;;;;;;;;;37.00;36.75;;;;;;;;6488084;39;8869;-54
2021/11/26 13:08:15;;;;;;;;;42.00;36.25;;;;;;;;6488779;31;8909;-55
2021/11/26 13:14:19;;;;;;;;;56.50;47.00;;;;;;;;6488093;31;8907;-58
2021/11/26 13:20:43;;;;;;;;;53.75;44.25;;;;;;;;6488179;39;8904;-56
2021/11/26 13:26:46;;;;;;;;;56.50;45.00;;;;;;;;6488970;39;9452;-57
2021/11/26 13:32:49;;;;;;;;;47.75;41.00;;;;;;;;6488627;39;8982;-56
2021/11/26 13:38:55;;;;;;;;;44.75;39.00;;;;;;;;6488282;47;8971;-59
2021/11/26 13:44:59;;;;;;;;;43.00;41.50;;;;;;;;6488202;46;8926;-57
2021/11/26 13:51:26;;;;;;;;;53.75;43.75;;;;;;;;6490659;46;8974;-55
2021/11/26 13:57:30;;;;;;;;;47.75;41.00;;;;;;;;6490614;31;8843;-57
2021/11/26 14:03:35;;;;;;;;;43.25;40.50;;;;;;;;6490508;31;8888;-56
2021/11/26 14:09:40;;;;;;;;;50.50;44.25;;;;;;;;6490582;39;8879;-56
2021/11/26 14:15:43;;;;;;;;;50.50;43.25;;;;;;;;6485112;31;8952;-57
2021/11/26 14:21:52;;;;;;;;;53.75;46.00;;;;;;;;6489077;39;9550;-58
2021/11/26 14:27:56;;;;;;;;;50.67;44.00;;;;;;;;6489600;31;8916;-57
2021/11/26 14:34:18;;;;;;;;;52.50;45.00;;;;;;;;6490632;39;8932;-59
2021/11/26 14:40:23;;;;;;;;;64.25;50.00;;;;;;;;6490147;39;9012;-58
2021/11/26 14:46:25;;;;;;;;;64.75;47.75;;;;;;;;6490005;39;9756;-55
2021/11/26 14:52:33;;;;;;;;;36.75;32.00;;;;;;;;6490651;39;8968;-57
2021/11/26 14:58:36;;;;;;;;;62.75;48.50;;;;;;;;6489877;39;9488;-55
2021/11/26 15:04:38;;;;;;;;;46.50;40.75;;;;;;;;6489232;39;8956;-57
2021/11/26 15:10:41;;;;;;;;;61.00;49.25;;;;;;;;6489737;39;8920;-57
2021/11/26 15:16:45;;;;;;;;;56.00;48.00;;;;;;;;6489607;39;9568;-55
2021/11/26 15:22:47;;;;;;;;;65.00;53.75;;;;;;;;6490240;39;8869;-57
2021/11/26 15:28:50;;;;;;;;;56.00;49.75;;;;;;;;6488547;39;9029;-56
2021/11/26 15:34:53;;;;;;;;;60.00;48.75;;;;;;;;6308610;36;10000243;-56
2021/11/26 15:40:56;;;;;;;;;64.00;49.75;;;;;;;;6489812;39;8913;-57
2021/11/26 15:46:58;;;;;;;;;63.75;49.25;;;;;;;;6489767;39;9056;-57
2021/11/26 15:53:01;;;;;;;;;61.00;49.75;;;;;;;;6489783;31;8964;-57
2021/11/26 15:59:03;;;;;;;;;62.00;49.50;;;;;;;;6489427;46;8876;-56
2021/11/26 16:05:06;;;;;;;;;53.25;47.25;;;;;;;;6488333;39;8995;-56
2021/11/26 16:11:11;;;;;;;;;55.25;46.00;;;;;;;;6488580;46;8981;-58
2021/11/26 16:17:16;;;;;;;;;63.75;52.00;;;;;;;;6489891;39;8918;-56
2021/11/26 16:23:18;;;;;;;;;71.00;55.25;;;;;;;;6489787;39;8871;-58
2021/11/26 16:29:21;;;;;;;;;71.50;55.25;;;;;;;;6489250;31;9610;-56
2021/11/26 16:41:27;;;;;;;;;76.75;60.00;;;;;;;;6488955;39;8933;-55
2021/11/26 16:47:30;;;;;;;;;75.25;61.75;;;;;;;;6488885;46;9027;-54
2021/11/26 16:53:32;;;;;;;;;72.50;59.75;;;;;;;;6489369;46;8970;-55
2021/11/26 16:59:35;;;;;;;;;76.25;59.75;;;;;;;;6488752;39;8919;-58
2021/11/26 17:05:40;;;;;;;;;67.50;56.00;;;;;;;;6489389;39;8863;-55
2021/11/26 17:11:46;;;;;;;;;64.50;51.75;;;;;;;;6488079;39;8938;-56
2021/11/26 17:17:49;;;;;;;;;76.25;60.50;;;;;;;;6488725;39;8840;-56
2021/11/26 17:23:52;;;;;;;;;81.50;64.50;;;;;;;;6490556;39;9574;-55
2021/11/26 17:29:54;;;;;;;;;85.25;65.75;;;;;;;;6491304;39;9006;-55
2021/11/26 17:35:57;;;;;;;;;89.25;67.50;;;;;;;;6490849;46;8836;-57
2021/11/26 17:42:20;;;;;;;;;83.25;65.50;;;;;;;;6490373;39;8887;-56
2021/11/26 17:48:29;;;;;;;;;86.75;70.50;;;;;;;;6491388;31;8990;-54
2021/11/26 17:54:32;;;;;;;;;87.25;70.00;;;;;;;;6490868;31;9026;-54
2021/11/26 18:00:37;;;;;;;;;92.00;71.00;;;;;;;;6489821;39;8930;-56
2021/11/26 18:06:39;;;;;;;;;94.00;72.25;;;;;;;;6491218;39;8844;-56
2021/11/26 18:12:59;;;;;;;;;93.50;73.75;;;;;;;;6490092;39;8963;-57
2021/11/26 18:19:03;;;;;;;;;90.00;72.50;;;;;;;;6490696;39;8864;-57
2021/11/26 18:25:07;;;;;;;;;93.00;72.25;;;;;;;;6490123;46;8970;-55
2021/11/26 18:31:10;;;;;;;;;95.50;74.50;;;;;;;;6490177;39;8868;-55
2021/11/26 18:37:12;;;;;;;;;94.50;72.25;;;;;;;;6489662;31;8863;-53
2021/11/26 18:43:26;;;;;;;;;86.75;69.25;;;;;;;;6489977;39;9035;-55
2021/11/26 18:49:30;;;;;;;;;87.50;68.00;;;;;;;;6489913;46;8895;-56
2021/11/26 18:55:32;;;;;;;;;87.25;69.00;;;;;;;;6490765;39;9026;-55
2021/11/26 19:01:36;;;;;;;;;84.75;67.25;;;;;;;;6490043;39;8860;-56
2021/11/26 19:07:39;;;;;;;;;90.50;70.25;;;;;;;;6489892;46;8879;-54
2021/11/26 19:14:03;;;;;;;;;90.75;69.75;;;;;;;;6490295;39;8903;-55
2021/11/26 19:20:06;;;;;;;;;89.25;69.00;;;;;;;;6490034;39;8987;-57
2021/11/26 19:26:08;;;;;;;;;91.00;72.00;;;;;;;;6490818;39;8932;-57
2021/11/26 19:32:18;;;;;;;;;103.33;89.00;;;;;;;;6489380;39;8963;-56
2021/11/26 19:38:20;;;;;;;;;92.50;72.75;;;;;;;;6490073;39;9071;-57
2021/11/26 19:44:23;;;;;;;;;95.67;73.33;;;;;;;;6489454;46;8852;-56
2021/11/26 19:50:27;;;;;;;;;92.75;73.50;;;;;;;;6489961;31;8911;-56
2021/11/26 19:56:31;;;;;;;;;87.25;69.00;;;;;;;;6490131;39;9465;-58
2021/11/26 20:02:33;;;;;;;;;79.75;64.50;;;;;;;;6489463;31;8975;-57
2021/11/26 20:08:36;;;;;;;;;82.50;64.25;;;;;;;;6489576;46;8982;-55
2021/11/26 20:14:43;;;;;;;;;87.50;67.50;;;;;;;;6489526;46;8903;-58
2021/11/26 20:20:46;;;;;;;;;87.75;66.25;;;;;;;;6490081;39;8887;-56
2021/11/26 20:26:50;;;;;;;;;82.25;65.00;;;;;;;;6488817;46;8895;-56
2021/11/26 20:32:52;;;;;;;;;83.00;65.00;;;;;;;;6489580;39;8875;-54
2021/11/26 20:38:54;;;;;;;;;84.50;65.00;;;;;;;;6489448;39;8902;-55
2021/11/26 20:44:57;;;;;;;;;84.50;64.50;;;;;;;;6489515;46;8864;-56
2021/11/26 20:50:59;;;;;;;;;77.25;62.50;;;;;;;;6489533;46;8871;-58
2021/11/26 20:57:02;;;;;;;;;80.50;62.00;;;;;;;;6490650;39;9000;-56
2021/11/26 21:03:23;;;;;;;;;74.25;61.25;;;;;;;;6488669;39;8900;-58
2021/11/26 21:09:26;;;;;;;;;77.50;61.00;;;;;;;;6489069;31;9161;-56
2021/11/26 21:15:29;;;;;;;;;80.25;63.25;;;;;;;;6490129;31;9695;-54
2021/11/26 21:21:32;;;;;;;;;77.50;60.00;;;;;;;;6489299;39;9488;-58
2021/11/26 21:27:34;;;;;;;;;74.25;60.00;;;;;;;;6488962;39;8867;-59
2021/11/26 21:33:37;;;;;;;;;75.50;60.75;;;;;;;;6489948;39;8934;-53
2021/11/26 21:39:39;;;;;;;;;73.75;59.75;;;;;;;;6489523;39;9091;-53
2021/11/26 21:46:05;;;;;;;;;75.50;59.75;;;;;;;;6489444;39;9520;-56
2021/11/26 21:52:07;;;;;;;;;84.75;65.00;;;;;;;;6488919;39;9693;-53
2021/11/26 21:58:10;;;;;;;;;72.00;56.25;;;;;;;;6488513;47;8864;-55
2021/11/26 22:04:12;;;;;;;;;94.00;72.00;;;;;;;;6489451;31;8855;-56
2021/11/26 22:10:15;;;;;;;;;86.50;67.75;;;;;;;;6490401;39;9022;-56
2021/11/26 22:16:17;;;;;;;;;91.75;73.00;;;;;;;;6490359;46;8955;-52
2021/11/26 22:22:20;;;;;;;;;94.00;72.25;;;;;;;;6490980;39;9555;-55
2021/11/26 22:28:23;;;;;;;;;89.50;69.00;;;;;;;;6490628;39;9051;-55
2021/11/26 22:34:25;;;;;;;;;98.33;77.67;;;;;;;;6490230;39;8927;-56
2021/11/26 22:40:27;;;;;;;;;99.33;79.67;;;;;;;;6490836;46;8970;-57
2021/11/26 22:46:30;;;;;;;;;97.67;80.00;;;;;;;;6489954;31;8887;-54
2021/11/26 22:52:32;;;;;;;;;99.00;77.67;;;;;;;;6490683;31;8979;-54
2021/11/26 22:58:34;;;;;;;;;102.67;80.67;;;;;;;;6490996;39;8856;-53
2021/11/26 23:04:38;;;;;;;;;98.33;80.67;;;;;;;;6490157;46;8855;-55
2021/11/26 23:10:40;;;;;;;;;105.67;89.33;;;;;;;;6489995;31;8919;-54
2021/11/26 23:16:44;;;;;;;;;109.33;88.67;;;;;;;;6490790;39;8963;-55
2021/11/26 23:22:48;;;;;;;;;104.00;86.00;;;;;;;;6489523;39;9396;-53
2021/11/26 23:28:51;;;;;;;;;107.00;91.67;;;;;;;;6490370;39;8875;-55
2021/11/26 23:34:54;;;;;;;;;100.00;76.00;;;;;;;;6489592;46;9008;-54
2021/11/26 23:40:56;;;;;;;;;100.00;80.67;;;;;;;;6489926;39;8879;-54
2021/11/26 23:46:59;;;;;;;;;98.33;76.00;;;;;;;;6491882;31;8954;-53
2021/11/26 23:53:01;;;;;;;;;108.00;91.00;;;;;;;;6489613;39;9127;-52
2021/11/26 23:59:04;;;;;;;;;99.67;82.00;;;;;;;;6490278;39;9031;-55
